Terminal Aerodrome Forecast
Issued by NWS

Home | Current Version | Previous Version | Text Only | Print | Product List | Glossary On
Versions: 1 2 3 4 5 6 7 8 9 10 11 12 13 14 15 16 17 18 19 20 21 22
000
FTUS46 KMFR 250542
TAFLMT
TAF
KLMT 250542Z 2506/2606 28008KT P6SM VCSH SCT040
     FM251500 32012KT P6SM SCT030 BKN060
     FM252000 32016G25KT P6SM SCT040=

USA.gov is the U.S. government's official web portal to all federal, state and local government web resources and services.